North Park, Indiana
Current Conditions -  °F | °C
As of 10:54 PM on Friday 24 Oct 2014 (Local Time) from KEVV Reporting Station
Clear Clear  
Wind Chill: 12°   Ceiling: Unl
Heat Index: 12°   Visibility: 8mi
Dew Point: 10°   Wind: 3mph
Humidity: 89%   Direction: 250°WSW
Pressure: 30.06"   Gusts: NA
Location:  38.0194°N, 87.5754°W
Report Text: KEVV 250354Z AUTO 25003KT 8SM CLR 12/10 A3006 RMK AO2 SLP180 T01170100
Loading
Personal Weather Stations






























Interactive Weather Map
Tropical Storm Tracking
New forecast layout! Learn more

10-Day Weather Forecast

Advertisements
Track Severe Weather on mobile